sensor_id;sensor_type;location;lat;lon;timestamp;temperature;humidity
21039;DHT22;10678;51.002;4.786;2023-04-03T00:01:24;2.70;99.90
21039;DHT22;10678;51.002;4.786;2023-04-03T00:03:49;2.70;99.90
21039;DHT22;10678;51.002;4.786;2023-04-03T00:06:17;2.70;99.90
21039;DHT22;10678;51.002;4.786;2023-04-03T00:08:42;2.80;99.90
21039;DHT22;10678;51.002;4.786;2023-04-03T00:11:08;2.80;99.90
21039;DHT22;10678;51.002;4.786;2023-04-03T00:13:35;2.80;99.90
21039;DHT22;10678;51.002;4.786;2023-04-03T00:16:01;2.70;99.90
21039;DHT22;10678;51.002;4.786;2023-04-03T00:18:28;2.70;99.90
21039;DHT22;10678;51.002;4.786;2023-04-03T00:20:54;2.60;99.90
21039;DHT22;10678;51.002;4.786;2023-04-03T00:23:20;2.70;99.90
21039;DHT22;10678;51.002;4.786;2023-04-03T00:25:45;2.70;99.90
21039;DHT22;10678;51.002;4.786;2023-04-03T00:28:11;2.70;99.90
21039;DHT22;10678;51.002;4.786;2023-04-03T00:30:37;2.70;99.90
21039;DHT22;10678;51.002;4.786;2023-04-03T00:33:03;2.70;99.90
21039;DHT22;10678;51.002;4.786;2023-04-03T00:35:28;2.60;99.90
21039;DHT22;10678;51.002;4.786;2023-04-03T00:37:55;2.60;99.90
21039;DHT22;10678;51.002;4.786;2023-04-03T00:40:23;2.60;99.90
21039;DHT22;10678;51.002;4.786;2023-04-03T00:42:51;2.50;99.90
21039;DHT22;10678;51.002;4.786;2023-04-03T00:47:43;2.50;99.90
21039;DHT22;10678;51.002;4.786;2023-04-03T00:50:09;2.40;99.90
21039;DHT22;10678;51.002;4.786;2023-04-03T00:52:36;2.40;99.90
21039;DHT22;10678;51.002;4.786;2023-04-03T00:55:05;2.40;99.90
21039;DHT22;10678;51.002;4.786;2023-04-03T00:57:33;2.40;99.90
21039;DHT22;10678;51.002;4.786;2023-04-03T01:00:03;2.40;99.90
21039;DHT22;10678;51.002;4.786;2023-04-03T01:02:29;2.40;99.90
21039;DHT22;10678;51.002;4.786;2023-04-03T01:04:55;2.40;99.90
21039;DHT22;10678;51.002;4.786;2023-04-03T01:07:24;2.40;99.90
21039;DHT22;10678;51.002;4.786;2023-04-03T01:09:56;2.40;99.90
21039;DHT22;10678;51.002;4.786;2023-04-03T01:14:58;2.30;99.90
21039;DHT22;10678;51.002;4.786;2023-04-03T01:17:32;2.30;99.90
21039;DHT22;10678;51.002;4.786;2023-04-03T01:25:29;2.30;99.90
21039;DHT22;10678;51.002;4.786;2023-04-03T01:27:55;2.30;99.90
21039;DHT22;10678;51.002;4.786;2023-04-03T01:30:25;2.30;99.90
21039;DHT22;10678;51.002;4.786;2023-04-03T01:32:53;2.30;99.90
21039;DHT22;10678;51.002;4.786;2023-04-03T01:35:18;2.30;99.90
21039;DHT22;10678;51.002;4.786;2023-04-03T01:37:44;2.30;99.90
21039;DHT22;10678;51.002;4.786;2023-04-03T01:40:10;2.20;99.90
21039;DHT22;10678;51.002;4.786;2023-04-03T01:42:35;2.30;99.90
21039;DHT22;10678;51.002;4.786;2023-04-03T01:45:01;2.20;99.90
21039;DHT22;10678;51.002;4.786;2023-04-03T01:47:27;2.20;99.90
21039;DHT22;10678;51.002;4.786;2023-04-03T01:49:52;2.10;99.90
21039;DHT22;10678;51.002;4.786;2023-04-03T01:52:18;2.10;99.90
21039;DHT22;10678;51.002;4.786;2023-04-03T01:54:43;2.10;99.90
21039;DHT22;10678;51.002;4.786;2023-04-03T01:57:09;2.10;99.90
21039;DHT22;10678;51.002;4.786;2023-04-03T01:59:35;2.10;99.90
21039;DHT22;10678;51.002;4.786;2023-04-03T02:02:01;2.00;99.90
21039;DHT22;10678;51.002;4.786;2023-04-03T02:04:26;2.00;99.90
21039;DHT22;10678;51.002;4.786;2023-04-03T02:06:52;1.90;99.90
21039;DHT22;10678;51.002;4.786;2023-04-03T02:09:18;1.90;99.90
21039;DHT22;10678;51.002;4.786;2023-04-03T02:11:43;1.90;99.90
21039;DHT22;10678;51.002;4.786;2023-04-03T02:14:09;1.80;99.90
21039;DHT22;10678;51.002;4.786;2023-04-03T02:16:34;1.80;99.90
21039;DHT22;10678;51.002;4.786;2023-04-03T02:19:00;1.90;99.90
21039;DHT22;10678;51.002;4.786;2023-04-03T02:21:26;1.90;99.90
21039;DHT22;10678;51.002;4.786;2023-04-03T02:23:51;1.90;99.90
21039;DHT22;10678;51.002;4.786;2023-04-03T02:26:17;1.80;99.90
21039;DHT22;10678;51.002;4.786;2023-04-03T02:28:43;1.90;99.90
21039;DHT22;10678;51.002;4.786;2023-04-03T02:31:10;1.80;99.90
21039;DHT22;10678;51.002;4.786;2023-04-03T02:33:36;1.80;99.90
21039;DHT22;10678;51.002;4.786;2023-04-03T02:36:03;1.80;99.90
21039;DHT22;10678;51.002;4.786;2023-04-03T02:38:28;1.80;99.90
21039;DHT22;10678;51.002;4.786;2023-04-03T02:41:00;1.80;99.90
21039;DHT22;10678;51.002;4.786;2023-04-03T02:43:26;1.80;99.90
21039;DHT22;10678;51.002;4.786;2023-04-03T02:45:51;1.70;99.90
21039;DHT22;10678;51.002;4.786;2023-04-03T02:48:17;1.70;99.90
21039;DHT22;10678;51.002;4.786;2023-04-03T02:50:42;1.70;99.90
21039;DHT22;10678;51.002;4.786;2023-04-03T02:53:08;1.60;99.90
21039;DHT22;10678;51.002;4.786;2023-04-03T02:55:34;1.60;99.90
21039;DHT22;10678;51.002;4.786;2023-04-03T02:57:59;1.60;99.90
21039;DHT22;10678;51.002;4.786;2023-04-03T03:00:25;1.60;99.90
21039;DHT22;10678;51.002;4.786;2023-04-03T03:02:50;1.60;99.90
21039;DHT22;10678;51.002;4.786;2023-04-03T03:05:16;1.60;99.90
21039;DHT22;10678;51.002;4.786;2023-04-03T03:07:42;1.50;99.90
21039;DHT22;10678;51.002;4.786;2023-04-03T03:10:07;1.40;99.90
21039;DHT22;10678;51.002;4.786;2023-04-03T03:12:33;1.50;99.90
21039;DHT22;10678;51.002;4.786;2023-04-03T03:14:59;1.40;99.90
21039;DHT22;10678;51.002;4.786;2023-04-03T03:17:24;1.40;99.90
21039;DHT22;10678;51.002;4.786;2023-04-03T03:19:50;1.50;99.90
21039;DHT22;10678;51.002;4.786;2023-04-03T03:22:16;1.50;99.90
21039;DHT22;10678;51.002;4.786;2023-04-03T03:24:42;1.50;99.90
21039;DHT22;10678;51.002;4.786;2023-04-03T03:27:07;1.50;99.90
21039;DHT22;10678;51.002;4.786;2023-04-03T03:29:33;1.40;99.90
21039;DHT22;10678;51.002;4.786;2023-04-03T03:31:58;1.30;99.90
21039;DHT22;10678;51.002;4.786;2023-04-03T03:34:24;1.30;99.90
21039;DHT22;10678;51.002;4.786;2023-04-03T03:36:50;1.30;99.90
21039;DHT22;10678;51.002;4.786;2023-04-03T03:39:16;1.30;99.90
21039;DHT22;10678;51.002;4.786;2023-04-03T03:41:42;1.30;99.90
21039;DHT22;10678;51.002;4.786;2023-04-03T03:44:07;1.30;99.90
21039;DHT22;10678;51.002;4.786;2023-04-03T03:46:33;1.30;99.90
21039;DHT22;10678;51.002;4.786;2023-04-03T03:48:58;1.20;99.90
21039;DHT22;10678;51.002;4.786;2023-04-03T03:51:24;1.20;99.90
21039;DHT22;10678;51.002;4.786;2023-04-03T03:53:50;1.20;99.90
21039;DHT22;10678;51.002;4.786;2023-04-03T03:56:16;1.20;99.90
21039;DHT22;10678;51.002;4.786;2023-04-03T03:58:42;1.30;99.90
21039;DHT22;10678;51.002;4.786;2023-04-03T04:01:07;1.30;99.90
21039;DHT22;10678;51.002;4.786;2023-04-03T04:03:33;1.30;99.90
21039;DHT22;10678;51.002;4.786;2023-04-03T04:05:59;1.30;99.90
21039;DHT22;10678;51.002;4.786;2023-04-03T04:08:25;1.30;99.90
21039;DHT22;10678;51.002;4.786;2023-04-03T04:10:51;1.20;99.90
21039;DHT22;10678;51.002;4.786;2023-04-03T04:13:16;1.20;99.90
21039;DHT22;10678;51.002;4.786;2023-04-03T04:15:43;1.10;99.90
21039;DHT22;10678;51.002;4.786;2023-04-03T04:18:08;1.10;99.90
21039;DHT22;10678;51.002;4.786;2023-04-03T04:20:34;1.00;99.90
21039;DHT22;10678;51.002;4.786;2023-04-03T04:22:59;1.00;99.90
21039;DHT22;10678;51.002;4.786;2023-04-03T04:25:25;1.00;99.90
21039;DHT22;10678;51.002;4.786;2023-04-03T04:27:50;0.90;99.90
21039;DHT22;10678;51.002;4.786;2023-04-03T04:30:16;0.90;99.90
21039;DHT22;10678;51.002;4.786;2023-04-03T04:32:42;0.90;99.90
21039;DHT22;10678;51.002;4.786;2023-04-03T04:35:08;0.90;99.90
21039;DHT22;10678;51.002;4.786;2023-04-03T04:37:33;0.90;99.90
21039;DHT22;10678;51.002;4.786;2023-04-03T04:39:59;0.90;99.90
21039;DHT22;10678;51.002;4.786;2023-04-03T04:42:25;0.90;99.90
21039;DHT22;10678;51.002;4.786;2023-04-03T04:44:51;0.90;99.90
21039;DHT22;10678;51.002;4.786;2023-04-03T04:47:16;0.90;99.90
21039;DHT22;10678;51.002;4.786;2023-04-03T04:49:42;0.90;99.90
21039;DHT22;10678;51.002;4.786;2023-04-03T04:52:08;0.90;99.90
21039;DHT22;10678;51.002;4.786;2023-04-03T04:54:33;0.80;99.90
21039;DHT22;10678;51.002;4.786;2023-04-03T04:56:59;0.90;99.90
21039;DHT22;10678;51.002;4.786;2023-04-03T04:59:24;0.80;99.90
21039;DHT22;10678;51.002;4.786;2023-04-03T05:01:50;0.80;99.90
21039;DHT22;10678;51.002;4.786;2023-04-03T05:04:17;0.90;99.90
21039;DHT22;10678;51.002;4.786;2023-04-03T05:06:42;0.80;99.90
21039;DHT22;10678;51.002;4.786;2023-04-03T05:09:08;0.80;99.90
21039;DHT22;10678;51.002;4.786;2023-04-03T05:11:35;0.80;99.90
21039;DHT22;10678;51.002;4.786;2023-04-03T05:14:01;0.80;99.90
21039;DHT22;10678;51.002;4.786;2023-04-03T05:16:27;0.90;99.90
21039;DHT22;10678;51.002;4.786;2023-04-03T05:18:52;0.80;99.90
21039;DHT22;10678;51.002;4.786;2023-04-03T05:21:18;0.80;99.90
21039;DHT22;10678;51.002;4.786;2023-04-03T05:23:44;0.90;99.90
21039;DHT22;10678;51.002;4.786;2023-04-03T05:26:09;0.90;99.90
21039;DHT22;10678;51.002;4.786;2023-04-03T05:28:35;0.90;99.90
21039;DHT22;10678;51.002;4.786;2023-04-03T05:31:02;0.90;99.90
21039;DHT22;10678;51.002;4.786;2023-04-03T05:33:27;0.90;99.90
21039;DHT22;10678;51.002;4.786;2023-04-03T05:35:54;0.90;99.90
21039;DHT22;10678;51.002;4.786;2023-04-03T05:38:20;0.90;99.90
21039;DHT22;10678;51.002;4.786;2023-04-03T05:40:46;0.90;99.90
21039;DHT22;10678;51.002;4.786;2023-04-03T05:43:12;1.00;99.90
21039;DHT22;10678;51.002;4.786;2023-04-03T05:45:38;1.00;99.90
21039;DHT22;10678;51.002;4.786;2023-04-03T05:48:03;1.00;99.90
21039;DHT22;10678;51.002;4.786;2023-04-03T05:50:29;1.00;99.90
21039;DHT22;10678;51.002;4.786;2023-04-03T05:52:57;1.10;99.90
21039;DHT22;10678;51.002;4.786;2023-04-03T05:55:24;1.10;99.90
21039;DHT22;10678;51.002;4.786;2023-04-03T05:57:49;1.20;99.90
21039;DHT22;10678;51.002;4.786;2023-04-03T06:00:15;1.20;99.90
21039;DHT22;10678;51.002;4.786;2023-04-03T06:02:41;1.30;99.90
21039;DHT22;10678;51.002;4.786;2023-04-03T06:05:08;1.30;99.90
21039;DHT22;10678;51.002;4.786;2023-04-03T06:07:34;1.40;99.90
21039;DHT22;10678;51.002;4.786;2023-04-03T06:10:00;1.40;99.90
21039;DHT22;10678;51.002;4.786;2023-04-03T06:12:27;1.40;99.90
21039;DHT22;10678;51.002;4.786;2023-04-03T06:14:55;1.50;99.90
21039;DHT22;10678;51.002;4.786;2023-04-03T06:17:20;1.50;99.90
21039;DHT22;10678;51.002;4.786;2023-04-03T06:19:46;1.60;99.90
21039;DHT22;10678;51.002;4.786;2023-04-03T06:22:12;1.70;99.90
21039;DHT22;10678;51.002;4.786;2023-04-03T06:24:39;1.70;99.90
21039;DHT22;10678;51.002;4.786;2023-04-03T06:27:05;1.80;99.90
21039;DHT22;10678;51.002;4.786;2023-04-03T06:29:30;1.90;99.90
21039;DHT22;10678;51.002;4.786;2023-04-03T06:31:56;2.00;99.90
21039;DHT22;10678;51.002;4.786;2023-04-03T06:34:22;2.10;99.90
21039;DHT22;10678;51.002;4.786;2023-04-03T06:36:47;2.20;99.90
21039;DHT22;10678;51.002;4.786;2023-04-03T06:39:19;2.30;99.90
21039;DHT22;10678;51.002;4.786;2023-04-03T06:41:48;2.40;99.90
21039;DHT22;10678;51.002;4.786;2023-04-03T06:44:14;2.50;99.90
21039;DHT22;10678;51.002;4.786;2023-04-03T06:46:42;2.70;99.90
21039;DHT22;10678;51.002;4.786;2023-04-03T06:49:08;2.80;99.90
21039;DHT22;10678;51.002;4.786;2023-04-03T06:51:34;3.10;99.90
21039;DHT22;10678;51.002;4.786;2023-04-03T06:54:01;3.20;99.90
21039;DHT22;10678;51.002;4.786;2023-04-03T06:56:27;3.50;99.90
21039;DHT22;10678;51.002;4.786;2023-04-03T06:58:56;3.90;99.90
21039;DHT22;10678;51.002;4.786;2023-04-03T07:01:27;4.10;99.90
21039;DHT22;10678;51.002;4.786;2023-04-03T07:03:53;4.20;99.90
21039;DHT22;10678;51.002;4.786;2023-04-03T07:06:19;4.30;99.90
21039;DHT22;10678;51.002;4.786;2023-04-03T07:08:45;4.70;99.90
21039;DHT22;10678;51.002;4.786;2023-04-03T07:11:12;4.80;99.90
21039;DHT22;10678;51.002;4.786;2023-04-03T07:13:38;4.90;99.90
21039;DHT22;10678;51.002;4.786;2023-04-03T07:16:04;5.00;99.90
21039;DHT22;10678;51.002;4.786;2023-04-03T07:18:32;5.20;99.90
21039;DHT22;10678;51.002;4.786;2023-04-03T07:20:58;5.10;99.90
21039;DHT22;10678;51.002;4.786;2023-04-03T07:23:24;5.40;99.90
21039;DHT22;10678;51.002;4.786;2023-04-03T07:25:51;5.50;99.90
21039;DHT22;10678;51.002;4.786;2023-04-03T07:28:18;5.70;99.90
21039;DHT22;10678;51.002;4.786;2023-04-03T07:30:49;5.70;99.90
21039;DHT22;10678;51.002;4.786;2023-04-03T07:33:17;5.90;99.90
21039;DHT22;10678;51.002;4.786;2023-04-03T07:35:44;6.20;99.90
21039;DHT22;10678;51.002;4.786;2023-04-03T07:38:10;6.90;99.90
21039;DHT22;10678;51.002;4.786;2023-04-03T07:40:37;7.80;99.90
21039;DHT22;10678;51.002;4.786;2023-04-03T07:43:03;8.00;99.90
21039;DHT22;10678;51.002;4.786;2023-04-03T07:45:29;8.10;99.90
21039;DHT22;10678;51.002;4.786;2023-04-03T07:47:54;8.20;99.90
21039;DHT22;10678;51.002;4.786;2023-04-03T07:50:20;9.20;99.90
21039;DHT22;10678;51.002;4.786;2023-04-03T07:52:48;10.80;99.90
21039;DHT22;10678;51.002;4.786;2023-04-03T07:55:14;12.10;99.90
21039;DHT22;10678;51.002;4.786;2023-04-03T07:57:39;13.50;99.90
21039;DHT22;10678;51.002;4.786;2023-04-03T08:00:06;14.60;99.90
21039;DHT22;10678;51.002;4.786;2023-04-03T08:02:31;15.40;99.90
21039;DHT22;10678;51.002;4.786;2023-04-03T08:04:58;14.80;99.90
21039;DHT22;10678;51.002;4.786;2023-04-03T08:07:24;14.70;99.90
21039;DHT22;10678;51.002;4.786;2023-04-03T08:09:50;14.60;99.90
21039;DHT22;10678;51.002;4.786;2023-04-03T08:12:16;15.50;99.90
21039;DHT22;10678;51.002;4.786;2023-04-03T08:14:41;17.40;99.90
21039;DHT22;10678;51.002;4.786;2023-04-03T08:17:08;20.00;97.80
21039;DHT22;10678;51.002;4.786;2023-04-03T08:19:37;21.90;91.90
21039;DHT22;10678;51.002;4.786;2023-04-03T08:22:03;24.10;78.00
21039;DHT22;10678;51.002;4.786;2023-04-03T08:24:29;25.70;70.20
21039;DHT22;10678;51.002;4.786;2023-04-03T08:26:55;26.20;65.60
21039;DHT22;10678;51.002;4.786;2023-04-03T08:29:20;27.20;58.50
21039;DHT22;10678;51.002;4.786;2023-04-03T08:31:46;28.40;55.30
21039;DHT22;10678;51.002;4.786;2023-04-03T08:34:13;29.20;55.80
21039;DHT22;10678;51.002;4.786;2023-04-03T08:36:39;30.20;49.60
21039;DHT22;10678;51.002;4.786;2023-04-03T08:39:05;30.00;48.00
21039;DHT22;10678;51.002;4.786;2023-04-03T08:41:36;29.20;47.10
21039;DHT22;10678;51.002;4.786;2023-04-03T08:44:15;29.40;48.10
21039;DHT22;10678;51.002;4.786;2023-04-03T08:49:25;29.70;44.20
21039;DHT22;10678;51.002;4.786;2023-04-03T08:51:51;29.30;45.90
21039;DHT22;10678;51.002;4.786;2023-04-03T08:55:12;30.20;44.90
21039;DHT22;10678;51.002;4.786;2023-04-03T08:57:10;29.60;43.60
21039;DHT22;10678;51.002;4.786;2023-04-03T08:59:38;28.80;43.60
21039;DHT22;10678;51.002;4.786;2023-04-03T09:02:23;29.80;43.60
21039;DHT22;10678;51.002;4.786;2023-04-03T09:04:50;30.40;42.60
21039;DHT22;10678;51.002;4.786;2023-04-03T09:07:36;31.20;41.20
21039;DHT22;10678;51.002;4.786;2023-04-03T09:10:04;30.20;43.00
21039;DHT22;10678;51.002;4.786;2023-04-03T09:12:44;30.90;40.50
21039;DHT22;10678;51.002;4.786;2023-04-03T09:15:19;30.90;41.40
21039;DHT22;10678;51.002;4.786;2023-04-03T09:26:01;33.10;38.40
21039;DHT22;10678;51.002;4.786;2023-04-03T09:28:33;31.90;38.60
21039;DHT22;10678;51.002;4.786;2023-04-03T09:31:00;31.50;39.40
21039;DHT22;10678;51.002;4.786;2023-04-03T09:33:26;31.60;40.60
21039;DHT22;10678;51.002;4.786;2023-04-03T09:35:52;31.70;38.30
21039;DHT22;10678;51.002;4.786;2023-04-03T09:38:20;31.80;39.30
21039;DHT22;10678;51.002;4.786;2023-04-03T09:43:33;32.40;38.50
21039;DHT22;10678;51.002;4.786;2023-04-03T09:46:29;33.40;38.90
21039;DHT22;10678;51.002;4.786;2023-04-03T09:49:02;33.60;36.10
21039;DHT22;10678;51.002;4.786;2023-04-03T09:51:28;32.70;36.70
21039;DHT22;10678;51.002;4.786;2023-04-03T09:53:55;31.90;36.70
21039;DHT22;10678;51.002;4.786;2023-04-03T09:56:22;31.60;37.10
21039;DHT22;10678;51.002;4.786;2023-04-03T10:01:39;31.10;37.80
21039;DHT22;10678;51.002;4.786;2023-04-03T10:06:46;30.00;36.70
21039;DHT22;10678;51.002;4.786;2023-04-03T10:09:23;30.20;37.60
21039;DHT22;10678;51.002;4.786;2023-04-03T10:14:34;30.50;35.50
21039;DHT22;10678;51.002;4.786;2023-04-03T10:17:14;30.40;36.10
21039;DHT22;10678;51.002;4.786;2023-04-03T10:20:17;31.30;37.00
21039;DHT22;10678;51.002;4.786;2023-04-03T10:23:19;33.20;36.00
21039;DHT22;10678;51.002;4.786;2023-04-03T10:28:24;32.70;35.00
21039;DHT22;10678;51.002;4.786;2023-04-03T10:33:44;32.00;33.40
21039;DHT22;10678;51.002;4.786;2023-04-03T10:55:31;30.50;34.70
21039;DHT22;10678;51.002;4.786;2023-04-03T10:57:59;30.70;34.10
21039;DHT22;10678;51.002;4.786;2023-04-03T11:00:35;31.00;33.90
21039;DHT22;10678;51.002;4.786;2023-04-03T11:03:11;30.40;34.80
21039;DHT22;10678;51.002;4.786;2023-04-03T11:05:45;31.10;34.60
21039;DHT22;10678;51.002;4.786;2023-04-03T11:10:43;31.50;31.90
21039;DHT22;10678;51.002;4.786;2023-04-03T11:15:48;30.30;32.50
21039;DHT22;10678;51.002;4.786;2023-04-03T11:18:32;31.00;32.20
21039;DHT22;10678;51.002;4.786;2023-04-03T11:21:05;30.20;31.70
21039;DHT22;10678;51.002;4.786;2023-04-03T11:23:36;29.80;33.10
21039;DHT22;10678;51.002;4.786;2023-04-03T11:26:11;30.40;32.70
21039;DHT22;10678;51.002;4.786;2023-04-03T11:28:38;30.00;33.80
21039;DHT22;10678;51.002;4.786;2023-04-03T11:36:57;30.30;30.50
21039;DHT22;10678;51.002;4.786;2023-04-03T11:39:33;30.80;30.40
21039;DHT22;10678;51.002;4.786;2023-04-03T11:44:40;30.70;30.10
21039;DHT22;10678;51.002;4.786;2023-04-03T11:47:08;30.00;30.90
21039;DHT22;10678;51.002;4.786;2023-04-03T11:50:00;31.20;29.70
21039;DHT22;10678;51.002;4.786;2023-04-03T12:05:49;30.10;28.10
21039;DHT22;10678;51.002;4.786;2023-04-03T12:08:24;30.10;30.00
21039;DHT22;10678;51.002;4.786;2023-04-03T12:40:07;30.70;28.90
21039;DHT22;10678;51.002;4.786;2023-04-03T12:45:52;32.00;28.60
21039;DHT22;10678;51.002;4.786;2023-04-03T12:48:27;30.80;29.30
21039;DHT22;10678;51.002;4.786;2023-04-03T12:50:53;30.90;29.50
21039;DHT22;10678;51.002;4.786;2023-04-03T12:53:26;30.70;28.60
21039;DHT22;10678;51.002;4.786;2023-04-03T12:55:57;31.10;28.90
21039;DHT22;10678;51.002;4.786;2023-04-03T12:58:25;30.50;29.10
21039;DHT22;10678;51.002;4.786;2023-04-03T13:03:27;30.90;28.30
21039;DHT22;10678;51.002;4.786;2023-04-03T13:06:02;31.10;27.40
21039;DHT22;10678;51.002;4.786;2023-04-03T13:08:29;31.00;30.00
21039;DHT22;10678;51.002;4.786;2023-04-03T13:11:22;30.90;27.80
21039;DHT22;10678;51.002;4.786;2023-04-03T13:16:25;30.70;27.20
21039;DHT22;10678;51.002;4.786;2023-04-03T13:18:53;28.10;28.70
21039;DHT22;10678;51.002;4.786;2023-04-03T13:21:26;26.90;30.70
21039;DHT22;10678;51.002;4.786;2023-04-03T13:23:56;24.90;30.70
21039;DHT22;10678;51.002;4.786;2023-04-03T13:26:24;23.80;34.40
21039;DHT22;10678;51.002;4.786;2023-04-03T13:28:52;22.90;33.70
21039;DHT22;10678;51.002;4.786;2023-04-03T13:31:38;20.90;35.10
21039;DHT22;10678;51.002;4.786;2023-04-03T13:34:12;19.40;38.00
21039;DHT22;10678;51.002;4.786;2023-04-03T13:36:43;17.40;39.90
21039;DHT22;10678;51.002;4.786;2023-04-03T13:41:40;15.40;45.40
21039;DHT22;10678;51.002;4.786;2023-04-03T13:49:42;14.50;48.80
21039;DHT22;10678;51.002;4.786;2023-04-03T13:55:34;14.60;49.70
21039;DHT22;10678;51.002;4.786;2023-04-03T13:58:01;15.20;46.40
21039;DHT22;10678;51.002;4.786;2023-04-03T14:00:47;16.00;47.30
21039;DHT22;10678;51.002;4.786;2023-04-03T14:05:51;17.70;44.50
21039;DHT22;10678;51.002;4.786;2023-04-03T14:08:18;18.20;43.40
21039;DHT22;10678;51.002;4.786;2023-04-03T14:10:44;18.70;41.80
21039;DHT22;10678;51.002;4.786;2023-04-03T14:13:14;19.50;40.20
21039;DHT22;10678;51.002;4.786;2023-04-03T14:15:41;19.70;40.20
21039;DHT22;10678;51.002;4.786;2023-04-03T14:18:11;20.60;39.90
21039;DHT22;10678;51.002;4.786;2023-04-03T14:20:38;20.20;38.70
21039;DHT22;10678;51.002;4.786;2023-04-03T14:23:05;19.50;39.80
21039;DHT22;10678;51.002;4.786;2023-04-03T14:25:32;18.90;39.90
21039;DHT22;10678;51.002;4.786;2023-04-03T14:27:58;17.80;40.90
21039;DHT22;10678;51.002;4.786;2023-04-03T14:30:33;16.30;43.80
21039;DHT22;10678;51.002;4.786;2023-04-03T14:33:00;15.30;47.30
21039;DHT22;10678;51.002;4.786;2023-04-03T14:35:26;14.30;48.00
21039;DHT22;10678;51.002;4.786;2023-04-03T14:37:53;13.90;50.50
21039;DHT22;10678;51.002;4.786;2023-04-03T14:40:23;13.60;48.00
21039;DHT22;10678;51.002;4.786;2023-04-03T14:42:49;13.30;50.60
21039;DHT22;10678;51.002;4.786;2023-04-03T14:45:16;13.40;49.70
21039;DHT22;10678;51.002;4.786;2023-04-03T14:47:52;13.00;50.80
21039;DHT22;10678;51.002;4.786;2023-04-03T14:50:22;12.80;50.40
21039;DHT22;10678;51.002;4.786;2023-04-03T14:52:50;12.60;52.80
21039;DHT22;10678;51.002;4.786;2023-04-03T14:55:19;12.40;51.10
21039;DHT22;10678;51.002;4.786;2023-04-03T14:57:45;12.50;52.10
21039;DHT22;10678;51.002;4.786;2023-04-03T15:00:21;12.40;52.60
21039;DHT22;10678;51.002;4.786;2023-04-03T15:02:47;12.20;52.60
21039;DHT22;10678;51.002;4.786;2023-04-03T15:05:14;12.20;52.30
21039;DHT22;10678;51.002;4.786;2023-04-03T15:07:47;12.10;52.70
21039;DHT22;10678;51.002;4.786;2023-04-03T15:10:16;12.00;53.60
21039;DHT22;10678;51.002;4.786;2023-04-03T15:12:43;12.00;55.30
21039;DHT22;10678;51.002;4.786;2023-04-03T15:15:09;12.00;56.00
21039;DHT22;10678;51.002;4.786;2023-04-03T15:17:36;12.10;57.10
21039;DHT22;10678;51.002;4.786;2023-04-03T15:20:03;12.20;54.00
21039;DHT22;10678;51.002;4.786;2023-04-03T15:22:29;12.00;54.20
21039;DHT22;10678;51.002;4.786;2023-04-03T15:24:55;11.90;55.20
21039;DHT22;10678;51.002;4.786;2023-04-03T15:27:21;11.80;54.80
21039;DHT22;10678;51.002;4.786;2023-04-03T15:29:46;11.70;56.80
21039;DHT22;10678;51.002;4.786;2023-04-03T15:32:12;11.90;57.00
21039;DHT22;10678;51.002;4.786;2023-04-03T15:34:38;11.90;56.10
21039;DHT22;10678;51.002;4.786;2023-04-03T15:37:05;11.90;55.80
21039;DHT22;10678;51.002;4.786;2023-04-03T15:39:31;11.90;58.90
21039;DHT22;10678;51.002;4.786;2023-04-03T15:41:56;11.80;56.50
21039;DHT22;10678;51.002;4.786;2023-04-03T15:44:25;11.80;57.40
21039;DHT22;10678;51.002;4.786;2023-04-03T15:46:51;11.80;57.30
21039;DHT22;10678;51.002;4.786;2023-04-03T15:49:18;11.80;58.50
21039;DHT22;10678;51.002;4.786;2023-04-03T15:51:44;11.70;57.50
21039;DHT22;10678;51.002;4.786;2023-04-03T15:54:10;11.70;58.40
21039;DHT22;10678;51.002;4.786;2023-04-03T15:56:35;11.60;59.50
21039;DHT22;10678;51.002;4.786;2023-04-03T15:59:01;11.50;58.30
21039;DHT22;10678;51.002;4.786;2023-04-03T16:01:27;11.60;58.30
21039;DHT22;10678;51.002;4.786;2023-04-03T16:03:52;11.50;57.80
21039;DHT22;10678;51.002;4.786;2023-04-03T16:06:18;11.50;59.20
21039;DHT22;10678;51.002;4.786;2023-04-03T16:08:45;11.40;59.70
21039;DHT22;10678;51.002;4.786;2023-04-03T16:11:11;11.50;59.80
21039;DHT22;10678;51.002;4.786;2023-04-03T16:13:37;11.30;60.20
21039;DHT22;10678;51.002;4.786;2023-04-03T16:16:04;11.30;60.20
21039;DHT22;10678;51.002;4.786;2023-04-03T16:18:30;11.30;59.90
21039;DHT22;10678;51.002;4.786;2023-04-03T16:20:56;11.30;59.80
21039;DHT22;10678;51.002;4.786;2023-04-03T16:23:22;11.30;62.60
21039;DHT22;10678;51.002;4.786;2023-04-03T16:25:48;11.30;61.40
21039;DHT22;10678;51.002;4.786;2023-04-03T16:28:16;11.20;60.00
21039;DHT22;10678;51.002;4.786;2023-04-03T16:30:43;11.30;62.30
21039;DHT22;10678;51.002;4.786;2023-04-03T16:33:10;11.20;61.70
21039;DHT22;10678;51.002;4.786;2023-04-03T16:35:39;11.20;64.30
21039;DHT22;10678;51.002;4.786;2023-04-03T16:38:09;11.30;63.30
21039;DHT22;10678;51.002;4.786;2023-04-03T16:40:35;11.30;63.00
21039;DHT22;10678;51.002;4.786;2023-04-03T16:43:01;11.30;65.60
21039;DHT22;10678;51.002;4.786;2023-04-03T16:45:27;11.20;66.70
21039;DHT22;10678;51.002;4.786;2023-04-03T16:47:53;11.10;66.70
21039;DHT22;10678;51.002;4.786;2023-04-03T16:50:19;11.20;67.30
21039;DHT22;10678;51.002;4.786;2023-04-03T16:52:47;11.00;66.00
21039;DHT22;10678;51.002;4.786;2023-04-03T16:55:13;11.00;66.80
21039;DHT22;10678;51.002;4.786;2023-04-03T16:57:39;10.90;69.20
21039;DHT22;10678;51.002;4.786;2023-04-03T17:00:05;10.90;67.90
21039;DHT22;10678;51.002;4.786;2023-04-03T17:02:31;10.80;68.90
21039;DHT22;10678;51.002;4.786;2023-04-03T17:04:56;10.80;71.60
21039;DHT22;10678;51.002;4.786;2023-04-03T17:07:25;10.70;74.30
21039;DHT22;10678;51.002;4.786;2023-04-03T17:09:51;10.70;74.50
21039;DHT22;10678;51.002;4.786;2023-04-03T17:12:20;10.70;74.40
21039;DHT22;10678;51.002;4.786;2023-04-03T17:14:45;10.60;74.30
21039;DHT22;10678;51.002;4.786;2023-04-03T17:17:13;10.60;74.40
21039;DHT22;10678;51.002;4.786;2023-04-03T17:19:39;10.60;72.50
21039;DHT22;10678;51.002;4.786;2023-04-03T17:22:07;10.50;71.60
21039;DHT22;10678;51.002;4.786;2023-04-03T17:24:34;10.40;74.00
21039;DHT22;10678;51.002;4.786;2023-04-03T17:27:00;10.40;75.70
21039;DHT22;10678;51.002;4.786;2023-04-03T17:29:25;10.30;75.80
21039;DHT22;10678;51.002;4.786;2023-04-03T17:31:51;10.20;81.70
21039;DHT22;10678;51.002;4.786;2023-04-03T17:34:16;10.20;79.40
21039;DHT22;10678;51.002;4.786;2023-04-03T17:36:42;10.20;74.00
21039;DHT22;10678;51.002;4.786;2023-04-03T17:39:08;10.00;75.50
21039;DHT22;10678;51.002;4.786;2023-04-03T17:41:34;10.00;79.50
21039;DHT22;10678;51.002;4.786;2023-04-03T17:44:00;9.90;80.30
21039;DHT22;10678;51.002;4.786;2023-04-03T17:46:26;9.80;78.50
21039;DHT22;10678;51.002;4.786;2023-04-03T17:48:52;9.70;81.70
21039;DHT22;10678;51.002;4.786;2023-04-03T17:51:20;9.70;80.80
21039;DHT22;10678;51.002;4.786;2023-04-03T17:53:47;9.60;80.30
21039;DHT22;10678;51.002;4.786;2023-04-03T17:56:23;9.60;77.90